Aérodrome :
LOGIN :

S'inscrire | Disclaimer

   EN    FR    IT 

 










Légende :    VFR   VFR Marginal   IFR   IFR Intensif   IFR Très Intensif
Visi : 
Plafond : 
>= 8 km
>= 3000ft
5 à 8 km
1000 à 3000 ft
1500m à 5 km
500 à 1000 ft
800 à 1500m
200 à 500 ft
< 800m
< 200 ft
Symboles :   Orages  Brouillard  Fortes neiges  Fortes précipitations  Vent > 20 kt
SIGMETs :   Divers  Orages  Givrage  Turbulence  Onde Orograph.  Cendres Volcan.






- Altitude de l'aérodrome : 870 ft
- Code IATA : ETZ


LFJL - Metz Nancy Lorraine

DERNIER METAR :
  • 210800Z AUTO 11008KT 2000 1100 R22/1600D R04/1900N BR OVC002 02/02 Q1009 TEMPO 0500 FG VV///

METARs EXPIRÉS :
  • 210730Z AUTO 12007KT 1300 1000 R22/1400U R04/1500U BR VV/// 01/01 Q1009 TEMPO 0500 FG
  • 210700Z AUTO 13006KT 1300 0900 R22/1200D R04/1600U BCFG VV/// 01/01 Q1009 TEMPO 0500 FG
  • 210630Z AUTO 12006KT 1200 1100 R22/1300N R04/1400U BR VV/// 01/01 Q1009 TEMPO 0500 FG
  • 210600Z AUTO 11009KT 1200 0800 R22/1000D R04/1800U BCFG VV/// 01/01 Q1009 TEMPO 0500 FG
  • 210530Z AUTO 12008KT 2600 BR OVC002 01/01 Q1009 TEMPO 0500 FG VV///

TAF TAF LFJL
Valide du 21 à 06h jusqu'au 22 à 06h UTC


210500Z 2106/2206 11006KT 4000 BR OVC004
TEMPO 2106/2110 0500 FG VV///
BECMG 2111/2113 CAVOK
TEMPO 2117/2206 3000 BR
PROB40
TEMPO 2123/2201 -RA
PROB40
TEMPO 2203/2206 BKN010



MET'MAP, la Météo Aéronautique d'un coup d'oeil ! - Copyright ORBIFLY Décembre 2007 - Disclaimer

ORBIFLY MET'MAP TEAM :

Programmation & Développement : Alexandra Zaïnal
Conception & Développement : Baudouin d'Aumeries
Co-Programmation & Développement : Marc-Olivier Méhu
Soutien technique & logistique : Manuel Goepfert

Contact : metmap@orbifly.com




SOURCES & CREDITS :

   NOAA